Time;durP1;ratioP1;P1;durP2;ratioP2;P2;SDS_P1;SDS_P2;PMS_P1;PMS_P2;Temp;Humidity;BMP_temperature;BMP_pressure;BME280_temperature;BME280_humidity;BME280_pressure;Samples;Min_cycle;Max_cycle;Signal;HPM_P1;HPM_P2
2021/12/19 00:00:32;;;;;;;9.63;3.33;;;1.30;99.90;0.90;97600.00;;;;5070127;28;20901;-82
2021/12/19 00:03:50;;;;;;;4.70;3.27;;;1.30;99.90;1.00;97590.00;;;;5062017;28;20931;-83
2021/12/19 00:09:45;;;;;;;4.73;2.53;;;1.30;99.90;0.50;97594.00;;;;5065061;28;21051;-82
2021/12/19 00:12:34;;;;;;;5.73;3.03;;;1.30;99.90;0.60;97589.00;;;;5071254;28;20791;-83
2021/12/19 00:15:24;;;;;;;5.87;3.63;;;1.30;99.90;0.80;97585.00;;;;5068120;28;20811;-81
2021/12/19 00:18:13;;;;;;;4.47;3.10;;;1.20;99.90;0.90;97570.00;;;;5069747;28;20434;-83
2021/12/19 00:21:03;;;;;;;7.23;2.77;;;1.20;99.90;0.90;97583.00;;;;5067457;28;20435;-83
2021/12/19 00:23:59;;;;;;;5.57;2.70;;;1.20;99.90;0.90;97582.00;;;;5063704;28;20429;-84
2021/12/19 00:26:48;;;;;;;3.63;2.63;;;1.20;99.90;0.60;97570.00;;;;5067805;28;20488;-83
2021/12/19 00:29:37;;;;;;;6.00;3.53;;;1.20;99.90;0.70;97571.00;;;;5073681;28;20443;-83
2021/12/19 00:32:27;;;;;;;3.50;2.30;;;1.10;99.90;0.50;97552.00;;;;5070688;28;20471;-83
2021/12/19 00:35:16;;;;;;;5.80;2.73;;;1.10;99.90;0.30;97553.00;;;;5061294;28;20911;-83
2021/12/19 00:38:06;;;;;;;3.43;2.67;;;1.00;99.90;0.20;97546.00;;;;5077814;28;20432;-83
2021/12/19 00:40:56;;;;;;;3.83;2.60;;;0.90;99.90;0.50;97548.00;;;;5062703;28;20454;-83
2021/12/19 00:43:52;;;;;;;7.77;3.20;;;0.90;99.90;0.30;97541.00;;;;5052617;28;20645;-83
2021/12/19 00:46:48;;;;;;;4.00;2.60;;;0.90;99.90;0.30;97545.00;;;;5058412;28;20414;-82
2021/12/19 00:49:40;;;;;;;4.50;2.50;;;0.90;99.90;0.40;97546.00;;;;5072237;28;20480;-83
2021/12/19 00:52:29;;;;;;;7.57;3.77;;;0.90;99.90;0.30;97533.00;;;;5072445;28;20426;-82
2021/12/19 00:55:20;;;;;;;4.37;2.27;;;0.80;99.90;0.50;97535.00;;;;5071407;28;20430;-83
2021/12/19 00:58:09;;;;;;;6.43;2.70;;;0.80;99.90;0.80;97544.00;;;;5073716;28;20422;-82
2021/12/19 01:00:58;;;;;;;3.83;2.83;;;0.90;99.90;0.60;97540.00;;;;5069303;28;20442;-83
2021/12/19 01:03:48;;;;;;;2.37;2.17;;;1.00;99.90;0.60;97534.00;;;;5064070;28;20430;-83
2021/12/19 01:06:38;;;;;;;3.17;1.93;;;1.00;99.90;0.50;97523.00;;;;5067099;28;20457;-83
2021/12/19 01:09:28;;;;;;;2.67;2.43;;;1.00;99.90;-0.10;97523.00;;;;5059831;28;20469;-81
2021/12/19 01:12:16;;;;;;;3.27;2.37;;;0.90;99.90;0.20;97518.00;;;;5072579;28;20472;-82
2021/12/19 01:15:07;;;;;;;2.73;2.50;;;0.80;99.90;0.10;97513.00;;;;5063462;28;20430;-81
2021/12/19 01:17:56;;;;;;;7.77;2.80;;;0.70;99.90;-0.20;97498.00;;;;5086087;28;20631;-83
2021/12/19 01:20:46;;;;;;;4.23;2.27;;;0.60;99.90;-0.50;97499.00;;;;5069895;28;20850;-82
2021/12/19 01:23:37;;;;;;;2.40;2.20;;;0.50;99.90;-0.50;97494.00;;;;5054318;28;20814;-83
2021/12/19 01:26:25;;;;;;;3.00;2.67;;;0.30;99.90;-0.30;97496.00;;;;5052867;28;20427;-83
2021/12/19 01:29:15;;;;;;;3.60;2.00;;;0.30;99.90;0.00;97500.00;;;;5079813;28;21257;-81
2021/12/19 01:32:04;;;;;;;1.57;1.40;;;0.30;99.90;0.20;97477.00;;;;5065963;28;20422;-82
2021/12/19 01:34:53;;;;;;;1.70;1.60;;;0.40;99.90;0.30;97488.00;;;;5078647;28;20824;-82
2021/12/19 01:37:42;;;;;;;2.13;1.90;;;0.50;99.90;0.00;97486.00;;;;5085522;28;20867;-82
2021/12/19 01:40:33;;;;;;;2.13;1.77;;;0.50;99.90;0.10;97497.00;;;;5061737;28;20455;-82
2021/12/19 01:43:24;;;;;;;3.20;1.77;;;0.50;99.90;-0.20;97481.00;;;;5061094;28;20433;-81
2021/12/19 01:46:14;;;;;;;2.37;2.03;;;0.50;99.90;-0.10;97491.00;;;;5069794;28;20825;-82
2021/12/19 01:49:04;;;;;;;2.97;1.90;;;0.50;99.90;0.00;97487.00;;;;5050571;28;20470;-80
2021/12/19 01:51:52;;;;;;;1.57;1.47;;;0.40;99.90;0.00;97491.00;;;;5050238;28;20431;-82
2021/12/19 01:54:41;;;;;;;2.53;2.10;;;0.40;99.90;0.10;97486.00;;;;5052883;28;20427;-84
2021/12/19 01:57:32;;;;;;;3.20;2.40;;;0.50;99.90;-0.50;97473.00;;;;5054182;28;20431;-82
2021/12/19 02:00:26;;;;;;;2.60;1.70;;;0.40;99.90;-0.50;97470.00;;;;5063636;28;20994;-82
2021/12/19 02:03:15;;;;;;;1.93;1.40;;;0.30;99.90;-0.90;97460.00;;;;5061495;28;20424;-83
2021/12/19 02:06:05;;;;;;;1.13;0.87;;;0.30;99.90;-0.90;97454.00;;;;5081193;28;20419;-79
2021/12/19 02:08:59;;;;;;;1.77;1.60;;;0.10;99.90;-0.90;97449.00;;;;5095387;28;20497;-78
2021/12/19 02:11:48;;;;;;;1.87;1.57;;;-0.10;99.90;-0.40;97452.00;;;;5072232;28;20446;-83
2021/12/19 02:14:38;;;;;;;2.13;1.20;;;-0.10;99.90;-0.50;97447.00;;;;5070563;28;20427;-85
2021/12/19 02:17:27;;;;;;;1.73;1.63;;;0.00;99.90;-0.30;97440.00;;;;5070535;28;20421;-82
2021/12/19 02:20:18;;;;;;;1.23;1.03;;;0.10;99.90;-0.10;97440.00;;;;5071010;28;20454;-81
2021/12/19 02:23:09;;;;;;;1.63;1.10;;;0.20;99.90;-0.10;97433.00;;;;5070018;28;20422;-82
2021/12/19 02:25:58;;;;;;;1.67;1.57;;;0.30;99.90;-0.80;97427.00;;;;5070566;28;20800;-81
2021/12/19 02:28:47;;;;;;;1.03;0.97;;;0.20;99.90;-0.70;97422.00;;;;5067068;28;20469;-82
2021/12/19 02:31:36;;;;;;;1.27;1.13;;;0.10;99.90;-0.60;97426.00;;;;5067708;28;20463;-81
2021/12/19 02:34:28;;;;;;;2.00;1.80;;;0.10;99.90;-0.40;97421.00;;;;5063753;28;20793;-82
2021/12/19 02:37:46;;;;;;;1.17;1.13;;;0.10;99.90;-0.70;97415.00;;;;5077944;28;20414;-82
2021/12/19 02:40:41;;;;;;;2.67;1.27;;;0.10;99.90;-1.00;97417.00;;;;5066054;28;20447;-83
2021/12/19 02:49:43;;;;;;;4.43;1.17;;;0.10;99.90;-0.10;97400.00;;;;5072066;28;20469;-82
2021/12/19 02:52:34;;;;;;;1.23;0.83;;;0.20;99.90;-0.70;97380.00;;;;5071521;28;20441;-83
2021/12/19 02:55:22;;;;;;;1.10;1.00;;;0.20;99.90;-0.70;97383.00;;;;5070397;28;20430;-83
2021/12/19 02:58:12;;;;;;;2.00;0.80;;;0.20;99.90;-0.40;97384.00;;;;5073509;28;20450;-83
2021/12/19 03:01:05;;;;;;;1.43;1.17;;;0.20;99.90;-0.70;97382.00;;;;5068902;28;20450;-81
2021/12/19 03:03:54;;;;;;;2.80;1.00;;;0.10;99.90;-0.60;97378.00;;;;5062759;28;20419;-84
2021/12/19 03:06:47;;;;;;;0.97;0.97;;;0.00;99.90;-0.40;97388.00;;;;5067657;28;20437;-83
2021/12/19 03:09:55;;;;;;;1.20;1.10;;;0.00;99.90;-0.30;97368.00;;;;5069249;28;20473;-84
2021/12/19 03:12:57;;;;;;;1.43;1.17;;;0.00;99.90;-0.40;97380.00;;;;5053747;28;20435;-83
2021/12/19 03:18:53;;;;;;;0.83;0.83;;;0.10;99.90;0.00;97369.00;;;;5070865;28;20427;-84
2021/12/19 03:21:41;;;;;;;1.63;0.70;;;0.20;99.90;-0.20;97373.00;;;;5049811;28;20458;-82
2021/12/19 03:24:30;;;;;;;1.03;1.03;;;0.40;99.90;-0.80;97356.00;;;;5052236;28;20412;-83
2021/12/19 03:27:20;;;;;;;1.93;1.50;;;0.20;99.90;-1.00;97346.00;;;;5050025;28;20438;-84
2021/12/19 03:30:11;;;;;;;3.13;0.87;;;0.00;99.90;-1.20;97349.00;;;;5079115;28;20812;-82
2021/12/19 03:32:59;;;;;;;0.70;0.70;;;-0.10;99.90;-1.10;97334.00;;;;5060342;28;20435;-84
2021/12/19 03:35:48;;;;;;;1.30;0.90;;;-0.30;99.90;-0.80;97334.00;;;;5072945;28;20421;-82
2021/12/19 03:38:42;;;;;;;0.80;0.80;;;-0.30;99.90;-0.60;97337.00;;;;5084008;28;20444;-83
2021/12/19 03:41:34;;;;;;;0.77;0.77;;;-0.20;99.90;-0.40;97334.00;;;;5053077;28;20447;-82
2021/12/19 03:44:24;;;;;;;0.87;0.87;;;-0.20;99.90;-0.20;97343.00;;;;5052187;28;20450;-82
2021/12/19 03:47:13;;;;;;;1.10;0.97;;;-0.10;99.90;-0.10;97339.00;;;;5067137;28;20419;-82
2021/12/19 03:50:03;;;;;;;1.20;1.10;;;0.10;99.90;-0.30;97330.00;;;;5069082;28;20474;-84
2021/12/19 03:52:54;;;;;;;1.30;0.90;;;0.10;99.90;-0.50;97332.00;;;;5065027;28;20423;-82
2021/12/19 03:55:43;;;;;;;1.13;1.03;;;0.10;99.90;-0.50;97315.00;;;;5056385;28;20441;-84
2021/12/19 03:58:32;;;;;;;1.30;1.10;;;0.10;99.90;-0.70;97308.00;;;;5051974;28;20936;-85
2021/12/19 04:01:22;;;;;;;1.63;1.17;;;0.30;99.90;-0.60;97312.00;;;;5048799;28;20986;-83
2021/12/19 04:04:12;;;;;;;2.73;0.90;;;-0.10;99.90;-0.50;97319.00;;;;5074289;28;20422;-81
2021/12/19 04:07:01;;;;;;;0.70;0.70;;;-0.10;99.90;-0.50;97313.00;;;;5061865;28;20542;-83
2021/12/19 04:09:50;;;;;;;1.20;1.10;;;0.00;99.90;-0.50;97309.00;;;;5049842;28;20534;-82
2021/12/19 04:12:39;;;;;;;1.50;0.90;;;-0.10;99.90;-0.60;97297.00;;;;5051588;28;20435;-85
2021/12/19 04:15:28;;;;;;;1.00;1.00;;;0.00;99.90;-0.50;97305.00;;;;5051885;28;20428;-83
2021/12/19 04:18:19;;;;;;;1.00;0.90;;;0.00;99.90;-0.60;97301.00;;;;5073752;28;20950;-81
2021/12/19 04:21:08;;;;;;;0.80;0.80;;;-0.10;99.90;-0.60;97289.00;;;;5075830;28;20438;-82
2021/12/19 04:23:57;;;;;;;0.77;0.77;;;-0.10;99.90;-0.80;97284.00;;;;5061926;28;20426;-84
2021/12/19 04:26:45;;;;;;;1.93;1.13;;;-0.20;99.90;-0.90;97285.00;;;;5074128;28;20433;-81
2021/12/19 04:29:34;;;;;;;0.97;0.93;;;-0.30;99.90;-0.80;97288.00;;;;5072722;28;20470;-82
2021/12/19 04:32:30;;;;;;;3.67;1.07;;;-0.30;99.90;-1.00;97271.00;;;;5069857;28;20426;-86
2021/12/19 04:35:20;;;;;;;1.43;0.97;;;-0.30;99.90;-0.80;97264.00;;;;5078192;28;20437;-84
2021/12/19 04:41:54;;;;;;;1.20;1.17;;;-0.30;99.90;-1.00;97262.00;;;;5031603;28;20448;-85
2021/12/19 04:54:05;;;;;;;1.00;1.00;;;-0.50;99.90;-1.00;97257.00;;;;5090881;28;20437;-81
2021/12/19 04:57:06;;;;;;;1.97;0.97;;;-0.50;99.90;-0.90;97252.00;;;;5066583;28;20431;-83
2021/12/19 04:59:59;;;;;;;1.23;1.13;;;-0.50;99.90;-0.80;97245.00;;;;5064820;28;20442;-83
2021/12/19 05:02:52;;;;;;;1.43;1.30;;;-0.40;99.90;-1.10;97242.00;;;;5084280;28;20426;-80
2021/12/19 05:05:55;;;;;;;1.00;0.90;;;-0.10;99.90;-1.30;97242.00;;;;5087524;28;20419;-82
2021/12/19 05:14:56;;;;;;;2.07;0.93;;;-0.70;99.90;-1.70;97218.00;;;;5054395;28;20446;-85
2021/12/19 05:17:47;;;;;;;0.93;0.87;;;-0.80;99.90;-1.40;97220.00;;;;5063036;28;20445;-83
2021/12/19 05:20:39;;;;;;;1.47;1.03;;;-0.80;99.90;-1.50;97223.00;;;;5071569;28;20457;-83
2021/12/19 05:23:38;;;;;;;0.87;0.80;;;-0.80;99.90;-1.30;97232.00;;;;5066336;28;20423;-80
2021/12/19 05:26:28;;;;;;;2.27;1.07;;;-0.80;99.90;-1.00;97233.00;;;;5071677;28;20434;-84
2021/12/19 05:29:18;;;;;;;0.93;0.70;;;-0.80;99.90;-0.70;97229.00;;;;5075029;28;20872;-82
2021/12/19 05:32:08;;;;;;;0.60;0.60;;;-0.60;99.90;-0.70;97216.00;;;;5064878;28;20428;-84
2021/12/19 05:34:57;;;;;;;0.87;0.80;;;-0.40;99.90;-1.20;97220.00;;;;5057149;28;20426;-83
2021/12/19 05:47:21;;;;;;;0.70;0.70;;;-0.60;99.90;-1.00;97215.00;;;;5070784;28;20943;-82
2021/12/19 05:50:11;;;;;;;1.13;1.07;;;-0.50;99.90;-1.30;97216.00;;;;5070979;28;20719;-83
2021/12/19 05:53:00;;;;;;;0.83;0.83;;;-0.50;99.90;-1.00;97220.00;;;;5072563;28;20430;-80
2021/12/19 05:55:48;;;;;;;3.10;2.63;;;-0.60;99.90;-1.20;97212.00;;;;5073278;28;20423;-84
2021/12/19 05:58:38;;;;;;;4.03;3.00;;;-0.50;99.90;-1.20;97212.00;;;;5074858;28;20438;-81
2021/12/19 06:01:28;;;;;;;3.20;2.13;;;-0.60;99.90;-1.10;97207.00;;;;5073756;28;20632;-82
2021/12/19 06:04:17;;;;;;;3.20;2.47;;;-0.60;99.90;-1.20;97195.00;;;;5073150;28;20532;-80
2021/12/19 06:07:06;;;;;;;3.50;2.10;;;-0.60;99.90;-1.20;97204.00;;;;5070241;28;20438;-84
2021/12/19 06:09:56;;;;;;;4.60;2.87;;;-0.60;99.90;-1.30;97207.00;;;;5073286;28;20470;-84
2021/12/19 06:12:45;;;;;;;2.23;1.90;;;-0.70;99.90;-1.20;97189.00;;;;5072947;28;20431;-82
2021/12/19 06:15:36;;;;;;;1.13;1.07;;;-0.70;99.90;-0.90;97198.00;;;;5070898;28;20431;-80
2021/12/19 06:18:26;;;;;;;3.70;2.43;;;-0.60;99.90;-0.80;97198.00;;;;5070936;28;20846;-83
2021/12/19 06:21:15;;;;;;;15.40;8.83;;;-0.50;99.90;-0.80;97190.00;;;;5072047;28;20680;-84
2021/12/19 06:24:03;;;;;;;10.93;6.83;;;-0.40;99.90;-1.00;97182.00;;;;5071155;28;20427;-82
2021/12/19 06:26:52;;;;;;;2.13;1.83;;;-0.40;99.90;-1.00;97166.00;;;;5071819;28;20450;-83
2021/12/19 06:29:41;;;;;;;2.10;2.00;;;-0.40;99.90;-1.20;97170.00;;;;5072237;28;20430;-82
2021/12/19 06:32:30;;;;;;;3.50;3.20;;;-0.50;99.90;-1.10;97171.00;;;;5070518;28;20418;-83
2021/12/19 06:35:22;;;;;;;2.80;2.60;;;-0.60;99.90;-1.30;97169.00;;;;5072353;28;20445;-84
2021/12/19 06:38:12;;;;;;;2.10;2.00;;;-0.60;99.90;-1.20;97170.00;;;;5072147;28;20422;-83
2021/12/19 06:41:01;;;;;;;1.13;1.03;;;-0.70;99.90;-0.90;97166.00;;;;5070591;28;20831;-85
2021/12/19 06:43:50;;;;;;;2.47;1.97;;;-0.60;99.90;-1.00;97181.00;;;;5068549;28;20426;-81
2021/12/19 06:46:39;;;;;;;0.70;0.70;;;-0.60;99.90;-1.60;97165.00;;;;5067428;28;20426;-84
2021/12/19 06:49:28;;;;;;;1.30;1.20;;;-0.60;99.90;-1.50;97158.00;;;;5049826;28;20436;-81
2021/12/19 06:52:18;;;;;;;0.80;0.80;;;-0.80;99.90;-1.50;97164.00;;;;5063720;28;20486;-81
2021/12/19 06:55:09;;;;;;;1.80;1.30;;;-0.90;99.90;-1.20;97149.00;;;;5071296;28;20441;-81
2021/12/19 06:57:58;;;;;;;2.00;1.37;;;-0.80;99.90;-1.10;97160.00;;;;5069828;28;20434;-81
2021/12/19 07:00:46;;;;;;;1.53;1.27;;;-0.80;99.90;-1.00;97152.00;;;;5071592;28;20447;-82
2021/12/19 07:03:35;;;;;;;3.07;1.90;;;-0.80;99.90;-1.30;97152.00;;;;5063547;28;20462;-82
2021/12/19 07:06:24;;;;;;;1.50;1.40;;;-0.70;99.90;-1.30;97143.00;;;;5051034;28;20739;-81
2021/12/19 07:09:14;;;;;;;1.40;1.30;;;-0.70;99.90;-1.10;97142.00;;;;5054443;28;20812;-83
2021/12/19 07:12:07;;;;;;;2.37;1.70;;;-0.70;99.90;-1.30;97140.00;;;;5050531;28;20471;-81
2021/12/19 07:14:58;;;;;;;1.57;1.40;;;-0.70;99.90;-1.20;97132.00;;;;5049873;28;20427;-81
2021/12/19 07:17:47;;;;;;;1.30;1.17;;;-0.70;99.90;-1.40;97141.00;;;;5055461;28;20444;-82
2021/12/19 07:20:35;;;;;;;0.60;0.60;;;-0.70;99.90;-1.80;97129.00;;;;5052592;28;20470;-82
2021/12/19 07:23:25;;;;;;;3.67;2.10;;;-0.80;99.90;-1.20;97131.00;;;;5053582;28;20439;-83
2021/12/19 07:26:17;;;;;;;1.60;1.50;;;-0.70;99.90;-0.70;97132.00;;;;5052077;28;20435;-83
2021/12/19 07:29:06;;;;;;;1.83;1.70;;;0.80;99.90;-0.50;97132.00;;;;5053689;28;20435;-82
2021/12/19 07:31:55;;;;;;;4.53;2.70;;;-0.40;99.90;-0.60;97110.00;;;;5052583;28;20991;-82
2021/12/19 07:34:46;;;;;;;5.77;3.20;;;-0.30;99.90;-0.40;97117.00;;;;5049863;28;20438;-82
2021/12/19 07:37:37;;;;;;;9.53;5.07;;;-0.20;99.90;-0.40;97112.00;;;;5053096;28;20454;-83
2021/12/19 07:40:28;;;;;;;3.10;2.70;;;-0.10;99.90;-0.50;97128.00;;;;5078242;28;20450;-80
2021/12/19 07:43:19;;;;;;;4.43;3.27;;;-0.10;99.90;-0.40;97122.00;;;;5069240;28;20441;-83
2021/12/19 07:46:07;;;;;;;9.83;8.60;;;0.00;99.90;-0.30;97120.00;;;;5054841;28;20714;-81
2021/12/19 07:48:56;;;;;;;8.97;7.03;;;0.00;99.90;-0.70;97119.00;;;;5054121;28;20434;-83
2021/12/19 07:51:45;;;;;;;3.93;3.43;;;0.00;99.90;-0.60;97107.00;;;;5050028;28;20926;-83
2021/12/19 07:54:34;;;;;;;2.77;2.07;;;0.00;99.90;-0.80;97093.00;;;;5051062;28;20447;-82
2021/12/19 07:57:23;;;;;;;1.90;1.80;;;0.00;99.90;-0.50;97086.00;;;;5050699;28;20436;-82
2021/12/19 08:00:16;;;;;;;1.83;1.73;;;-0.10;99.90;-0.40;97097.00;;;;5049942;28;20785;-81
2021/12/19 08:03:05;;;;;;;1.50;1.40;;;0.00;99.90;-0.10;97084.00;;;;5053482;28;20442;-82
2021/12/19 08:05:54;;;;;;;1.87;1.63;;;0.00;99.90;0.00;97086.00;;;;5049546;28;20636;-84
2021/12/19 08:08:51;;;;;;;2.73;1.90;;;0.10;99.90;0.10;97090.00;;;;5049278;28;20423;-81
2021/12/19 08:11:42;;;;;;;4.93;2.90;;;0.60;99.90;0.30;97100.00;;;;5050576;28;20477;-85
2021/12/19 08:14:31;;;;;;;3.23;2.23;;;0.30;99.90;0.40;97086.00;;;;5054182;28;20486;-84
2021/12/19 08:17:22;;;;;;;2.70;2.40;;;0.50;99.90;0.60;97093.00;;;;5051692;28;20434;-84
2021/12/19 08:20:14;;;;;;;2.40;2.17;;;0.60;99.90;0.80;97097.00;;;;5053777;28;20449;-82
2021/12/19 08:23:02;;;;;;;5.83;2.57;;;0.70;99.90;0.70;97095.00;;;;5051432;28;20438;-85
2021/12/19 08:25:51;;;;;;;2.87;2.27;;;0.80;99.90;0.60;97094.00;;;;5050149;28;20443;-82
2021/12/19 08:28:40;;;;;;;2.73;2.00;;;0.90;99.90;0.80;97092.00;;;;5053194;28;20437;-82
2021/12/19 08:31:29;;;;;;;2.20;1.60;;;1.00;99.90;0.20;97078.00;;;;5052177;28;20462;-83
2021/12/19 08:34:20;;;;;;;2.97;2.40;;;0.90;99.90;-0.50;97061.00;;;;5071713;28;20433;-81
2021/12/19 08:37:08;;;;;;;2.80;2.10;;;0.70;99.90;-0.50;97056.00;;;;5068567;28;20437;-84
2021/12/19 08:39:57;;;;;;;5.63;3.47;;;0.40;99.90;-0.50;97054.00;;;;5078919;28;20438;-82
2021/12/19 08:42:46;;;;;;;3.83;2.77;;;0.40;99.90;-0.30;97041.00;;;;5063647;28;20956;-83
2021/12/19 08:45:36;;;;;;;3.63;2.57;;;0.30;99.90;0.00;97055.00;;;;5063472;28;20778;-83
2021/12/19 08:48:25;;;;;;;2.20;2.00;;;0.40;99.90;0.20;97056.00;;;;5061236;28;20433;-81
2021/12/19 08:51:15;;;;;;;2.27;2.03;;;0.50;99.90;0.40;97045.00;;;;5053180;28;21023;-81
2021/12/19 08:54:06;;;;;;;3.20;2.03;;;0.70;99.90;0.70;97044.00;;;;5067114;28;20437;-83
2021/12/19 08:56:57;;;;;;;2.43;1.90;;;0.70;99.90;0.70;97042.00;;;;5069096;28;20809;-81
2021/12/19 08:59:47;;;;;;;3.23;2.23;;;0.90;99.90;1.20;97046.00;;;;5059351;28;20947;-84
2021/12/19 09:02:36;;;;;;;2.40;2.20;;;1.10;99.90;1.50;97044.00;;;;5053591;28;20450;-85
2021/12/19 09:05:27;;;;;;;2.20;1.63;;;1.30;99.90;1.90;97054.00;;;;5052954;28;20445;-82
2021/12/19 09:08:17;;;;;;;2.90;2.30;;;1.70;99.90;2.10;97048.00;;;;5065597;28;20475;-85
2021/12/19 09:11:06;;;;;;;5.23;3.60;;;1.70;99.90;2.40;97055.00;;;;5053391;28;20481;-84
2021/12/19 09:13:55;;;;;;;5.17;3.40;;;1.90;99.90;2.60;97048.00;;;;5053508;28;20435;-85
2021/12/19 09:16:44;;;;;;;5.33;3.87;;;2.20;99.90;2.80;97047.00;;;;5057876;28;20453;-84
2021/12/19 09:19:34;;;;;;;9.27;4.30;;;2.40;99.90;3.10;97052.00;;;;5052990;28;22010;-84
2021/12/19 09:22:23;;;;;;;9.17;4.07;;;2.60;99.90;3.30;97043.00;;;;5061650;28;20448;-83
2021/12/19 09:25:22;;;;;;;5.23;3.57;;;2.80;99.90;3.30;97034.00;;;;5059084;28;20808;-87
2021/12/19 09:28:11;;;;;;;4.67;3.57;;;3.10;99.90;3.00;97036.00;;;;5061649;28;20450;-82
2021/12/19 09:31:01;;;;;;;6.90;5.83;;;3.50;99.90;2.40;97026.00;;;;5060837;27;20465;-85
2021/12/19 09:33:50;;;;;;;11.17;8.27;;;3.20;99.90;2.50;97015.00;;;;5061147;28;20789;-86
2021/12/19 09:36:38;;;;;;;11.17;8.90;;;3.10;99.90;2.90;97016.00;;;;5060700;28;20439;-83
2021/12/19 09:43:03;;;;;;;5.33;4.73;;;3.20;99.90;3.50;96991.00;;;;5059507;28;20461;-83
2021/12/19 09:45:54;;;;;;;8.10;5.37;;;3.20;99.90;3.10;96988.00;;;;5059309;28;20447;-84
2021/12/19 09:48:47;;;;;;;6.07;4.53;;;3.20;99.90;3.60;96999.00;;;;5057195;28;20428;-82
2021/12/19 09:51:37;;;;;;;7.90;5.33;;;3.50;99.90;4.00;96980.00;;;;5055458;28;20469;-81
2021/12/19 09:54:26;;;;;;;10.17;6.17;;;3.50;99.90;4.40;96978.00;;;;5066140;28;20427;-81
2021/12/19 09:57:15;;;;;;;7.57;4.37;;;3.80;99.90;4.70;96989.00;;;;5065508;28;20427;-81
2021/12/19 10:00:08;;;;;;;8.17;4.67;;;4.10;99.90;5.00;96973.00;;;;5061026;28;20450;-79
2021/12/19 10:02:57;;;;;;;7.17;4.33;;;4.30;99.90;5.30;96965.00;;;;5060630;28;20211;-80
2021/12/19 10:05:45;;;;;;;8.30;5.03;;;4.60;99.90;5.30;96950.00;;;;5060161;28;20196;-83
2021/12/19 10:08:35;;;;;;;10.30;5.73;;;4.80;99.90;5.50;96946.00;;;;5058417;28;20569;-83
2021/12/19 10:11:33;;;;;;;5.83;3.77;;;5.10;99.90;4.90;96926.00;;;;5062657;28;20234;-81
2021/12/19 10:14:27;;;;;;;7.27;4.87;;;5.10;99.90;5.50;96915.00;;;;5064297;28;20213;-86
2021/12/19 10:17:20;;;;;;;9.40;5.33;;;5.20;99.90;5.70;96913.00;;;;5060448;28;20200;-87
2021/12/19 10:20:12;;;;;;;7.23;5.33;;;5.40;99.90;6.70;96915.00;;;;5068831;28;20228;-86
2021/12/19 10:23:12;;;;;;;8.07;4.37;;;6.00;99.90;7.90;96914.00;;;;5082520;28;20186;-79
2021/12/19 10:26:03;;;;;;;6.77;4.67;;;7.40;99.90;7.20;96891.00;;;;5088127;28;20187;-82
2021/12/19 10:28:56;;;;;;;6.60;4.53;;;8.50;99.90;8.80;96888.00;;;;5061511;28;20673;-86
2021/12/19 10:32:04;;;;;;;7.63;4.13;;;9.40;99.90;9.90;96889.00;;;;5059561;28;20228;-86
2021/12/19 10:35:14;;;;;;;6.47;4.73;;;10.40;98.00;8.50;96879.00;;;;5060317;28;20211;-84
2021/12/19 10:38:05;;;;;;;9.73;5.00;;;10.90;85.10;9.40;96868.00;;;;5062706;28;20218;-85
2021/12/19 10:40:56;;;;;;;4.97;3.23;;;11.00;86.40;10.90;96852.00;;;;5063521;28;20224;-87
2021/12/19 10:43:56;;;;;;;10.77;4.87;;;11.40;87.70;9.60;96858.00;;;;5061670;28;20216;-82
2021/12/19 10:46:48;;;;;;;4.83;3.13;;;11.50;78.00;10.50;96848.00;;;;5063675;28;20204;-86
2021/12/19 10:49:39;;;;;;;3.70;3.00;;;11.00;73.30;11.40;96846.00;;;;5064003;28;20204;-82
2021/12/19 10:52:38;;;;;;;4.10;2.83;;;11.70;75.00;11.50;96860.00;;;;5059328;28;20227;-81
2021/12/19 10:55:32;;;;;;;2.30;2.00;;;12.00;72.30;13.00;96844.00;;;;5061420;28;20220;-86
2021/12/19 10:58:39;;;;;;;0.83;0.83;;;12.50;66.20;14.00;96852.00;;;;5063149;28;20747;-87
2021/12/19 11:01:30;;;;;;;0.83;0.60;;;13.20;63.60;14.60;96842.00;;;;5060745;28;20232;-83
2021/12/19 11:04:19;;;;;;;0.70;0.67;;;13.80;54.60;14.80;96842.00;;;;5069696;28;21145;-84
2021/12/19 11:07:08;;;;;;;0.60;0.60;;;14.50;51.90;15.60;96839.00;;;;5065145;28;20200;-85
2021/12/19 11:09:59;;;;;;;2.73;2.23;;;15.10;52.40;15.90;96846.00;;;;5064296;28;20719;-86
2021/12/19 11:13:07;;;;;;;2.97;2.47;;;15.50;51.80;16.70;96834.00;;;;5058452;28;20673;-83
2021/12/19 11:15:56;;;;;;;1.73;1.40;;;16.10;54.60;16.60;96824.00;;;;5069104;28;20204;-85
2021/12/19 11:18:45;;;;;;;1.25;0.90;;;16.30;53.70;17.10;96809.00;;;;5059067;28;20418;-84
2021/12/19 11:21:36;;;;;;;1.00;0.40;;;16.70;51.50;17.40;96802.00;;;;5061784;28;20227;-86
2021/12/19 11:24:26;;;;;;;0.37;0.30;;;17.10;49.60;17.60;96810.00;;;;5056425;28;20228;-85
2021/12/19 11:27:16;;;;;;;4.30;1.87;;;17.20;47.70;18.00;96792.00;;;;5064680;28;20200;-82
2021/12/19 11:30:07;;;;;;;2.43;1.43;;;17.70;47.10;17.40;96789.00;;;;5060262;28;20234;-84
2021/12/19 11:33:20;;;;;;;6.07;0.90;;;18.10;47.20;18.60;96791.00;;;;5067347;28;20214;-88
2021/12/19 11:36:10;;;;;;;3.70;1.00;;;18.30;47.20;19.70;96796.00;;;;5074700;28;20211;-84
2021/12/19 11:39:02;;;;;;;7.13;2.17;;;18.90;47.30;19.70;96783.00;;;;5051773;28;20217;-84
2021/12/19 11:42:09;;;;;;;4.57;1.13;;;19.50;45.90;19.90;96775.00;;;;5050003;28;20230;-86
2021/12/19 11:45:17;;;;;;;0.90;0.70;;;19.90;45.20;20.60;96768.00;;;;5057996;28;20216;-84
2021/12/19 11:48:22;;;;;;;1.80;0.60;;;20.30;45.90;20.40;96774.00;;;;5068800;28;20703;-85
2021/12/19 11:51:21;;;;;;;2.03;0.83;;;20.80;44.30;20.50;96758.00;;;;5063495;28;20217;-85
2021/12/19 11:54:16;;;;;;;1.80;0.90;;;21.00;43.20;18.30;96758.00;;;;5062203;28;20218;-84
2021/12/19 11:57:15;;;;;;;3.53;1.27;;;20.70;41.20;18.30;96758.00;;;;5064330;28;20207;-84
2021/12/19 12:00:31;;;;;;;1.83;1.13;;;20.20;41.30;19.30;96760.00;;;;5079567;28;20628;-85
2021/12/19 12:03:27;;;;;;;3.83;0.40;;;19.90;41.60;19.70;96756.00;;;;5069656;28;20230;-83
2021/12/19 12:06:32;;;;;;;0.30;0.30;;;20.10;39.70;20.80;96757.00;;;;5060766;28;20672;-84
2021/12/19 12:09:38;;;;;;;0.40;0.20;;;20.50;39.50;18.60;96713.00;;;;5077672;28;20202;-85
2021/12/19 12:12:35;;;;;;;0.50;0.30;;;20.80;36.20;18.60;96736.00;;;;5066231;28;20198;-86
2021/12/19 12:15:34;;;;;;;0.57;0.50;;;19.90;37.10;17.20;96718.00;;;;5063314;28;20211;-82
2021/12/19 12:18:32;;;;;;;4.33;0.23;;;19.30;38.10;19.60;96718.00;;;;5077643;28;20208;-81
2021/12/19 12:21:28;;;;;;;0.20;0.20;;;19.30;39.80;19.40;96709.00;;;;5066812;28;20241;-84
2021/12/19 12:24:19;;;;;;;2.03;0.50;;;19.80;38.50;21.00;96696.00;;;;5053705;28;20218;-85
2021/12/19 12:27:08;;;;;;;4.63;0.70;;;20.40;38.60;21.50;96706.00;;;;5063837;28;20195;-85
2021/12/19 12:29:57;;;;;;;6.50;0.40;;;21.00;38.30;22.40;96703.00;;;;5063242;28;20594;-85
2021/12/19 12:32:47;;;;;;;5.10;0.50;;;21.60;38.10;21.50;96693.00;;;;5067105;28;20203;-85
2021/12/19 12:35:40;;;;;;;0.90;0.30;;;21.90;36.70;22.60;96694.00;;;;5067204;28;20600;-85
2021/12/19 12:38:30;;;;;;;1.03;0.50;;;22.40;37.50;22.90;96682.00;;;;5070561;28;20216;-85
2021/12/19 12:41:29;;;;;;;0.83;0.47;;;22.80;37.40;23.20;96676.00;;;;5071693;28;20261;-85
2021/12/19 12:44:20;;;;;;;0.65;0.20;;;23.10;37.30;21.00;96658.00;;;;5057962;28;20231;-84
2021/12/19 12:47:09;;;;;;;1.67;1.02;;;23.20;35.50;22.50;96655.00;;;;5061346;28;21134;-85
2021/12/19 12:50:05;;;;;;;2.22;1.60;;;23.20;36.10;22.70;96653.00;;;;5062063;28;20228;-85
2021/12/19 12:52:58;;;;;;;2.20;1.80;;;23.40;37.30;22.50;96648.00;;;;5062672;28;20214;-84
2021/12/19 12:56:09;;;;;;;2.15;1.40;;;23.70;37.30;23.40;96642.00;;;;5061561;28;20199;-84
2021/12/19 12:58:58;;;;;;;5.32;1.63;;;23.90;36.60;24.20;96644.00;;;;5068398;28;20216;-85
2021/12/19 13:01:51;;;;;;;9.38;2.03;;;24.20;35.30;24.00;96633.00;;;;5066838;28;20709;-83
2021/12/19 13:04:43;;;;;;;2.05;1.10;;;24.40;35.00;24.00;96630.00;;;;5063183;28;21081;-84
2021/12/19 13:07:33;;;;;;;0.70;0.55;;;24.50;35.50;24.70;96626.00;;;;5068278;28;20210;-84
2021/12/19 13:10:25;;;;;;;3.25;0.68;;;25.00;35.40;23.00;96620.00;;;;5085355;28;20199;-83
2021/12/19 13:13:17;;;;;;;5.50;1.08;;;25.30;34.30;24.30;96621.00;;;;5092570;28;20190;-84
2021/12/19 13:16:06;;;;;;;1.42;1.33;;;25.40;34.70;23.80;96624.00;;;;5067547;28;20717;-85
2021/12/19 13:18:55;;;;;;;0.43;0.38;;;25.20;33.20;24.10;96631.00;;;;5068658;28;20667;-84
2021/12/19 13:21:56;;;;;;;1.13;0.40;;;25.20;31.60;22.60;96607.00;;;;5065202;28;20697;-85
2021/12/19 13:24:49;;;;;;;1.35;0.88;;;25.20;31.50;21.20;96600.00;;;;5069247;28;20226;-83
2021/12/19 13:27:42;;;;;;;0.70;0.40;;;24.40;32.90;20.90;96607.00;;;;5082654;28;20205;-83
2021/12/19 13:30:33;;;;;;;3.45;0.70;;;23.70;32.20;21.50;96609.00;;;;5073531;28;20235;-85
2021/12/19 13:33:24;;;;;;;4.93;0.98;;;23.00;32.80;20.80;96592.00;;;;5073182;28;20205;-84